Time;durP1;ratioP1;P1;durP2;ratioP2;P2;SDS_P1;SDS_P2;PMS_P1;PMS_P2;Temp;Humidity;BMP_temperature;BMP_pressure;BME280_temperature;BME280_humidity;BME280_pressure;Samples;Min_cycle;Max_cycle;Signal;HPM_P1;HPM_P2
2023/08/21 00:00:22;;;;;;;3.17;0.60;;;19.00;66.10;;;;;;4983611;28;20055;-70
2023/08/21 00:02:49;;;;;;;3.30;0.80;;;19.00;66.10;;;;;;4992202;28;20081;-70
2023/08/21 00:05:16;;;;;;;2.50;0.70;;;19.00;66.10;;;;;;4969178;28;20472;-70
2023/08/21 00:07:46;;;;;;;3.00;0.93;;;18.90;66.00;;;;;;4982344;28;20555;-70
2023/08/21 00:10:14;;;;;;;2.60;0.80;;;18.90;65.80;;;;;;4986657;28;20051;-70
2023/08/21 00:12:41;;;;;;;2.63;0.70;;;18.80;65.90;;;;;;4986812;28;20046;-70
2023/08/21 00:15:10;;;;;;;2.53;0.73;;;18.70;66.30;;;;;;4984367;28;20407;-70
2023/08/21 00:17:37;;;;;;;2.90;0.68;;;18.60;66.50;;;;;;4986831;28;20137;-70
2023/08/21 00:20:09;;;;;;;6.63;0.70;;;18.60;66.70;;;;;;4986197;28;20050;-70
2023/08/21 00:22:36;;;;;;;2.38;0.60;;;18.60;66.90;;;;;;4984706;28;20059;-70
2023/08/21 00:25:06;;;;;;;2.25;0.60;;;18.50;66.90;;;;;;4986725;28;20056;-70
2023/08/21 00:27:33;;;;;;;3.07;0.53;;;18.50;66.90;;;;;;4969049;28;20049;-70
2023/08/21 00:30:01;;;;;;;3.40;0.70;;;18.40;66.80;;;;;;4984249;28;20058;-71
2023/08/21 00:32:29;;;;;;;3.25;0.60;;;18.40;66.90;;;;;;4986120;28;20062;-70
2023/08/21 00:34:56;;;;;;;3.70;0.75;;;18.40;66.90;;;;;;4985480;28;20090;-70
2023/08/21 00:37:24;;;;;;;3.67;0.70;;;18.40;66.80;;;;;;4964412;28;20057;-70
2023/08/21 00:39:51;;;;;;;3.47;0.80;;;18.30;66.70;;;;;;4982441;28;20146;-70
2023/08/21 00:42:19;;;;;;;2.28;0.77;;;18.30;66.70;;;;;;4985682;28;20058;-70
2023/08/21 00:44:47;;;;;;;2.30;0.70;;;18.20;66.80;;;;;;4981700;28;20078;-70
2023/08/21 00:47:14;;;;;;;2.40;0.75;;;18.20;66.90;;;;;;4985463;28;20497;-70
2023/08/21 00:49:41;;;;;;;2.60;0.70;;;18.20;66.90;;;;;;4985909;28;20066;-70
2023/08/21 00:52:11;;;;;;;3.67;0.90;;;18.20;66.80;;;;;;4985583;28;20517;-70
2023/08/21 00:54:39;;;;;;;4.47;0.82;;;18.10;66.80;;;;;;4984313;28;20086;-70
2023/08/21 00:57:07;;;;;;;4.25;0.90;;;18.10;66.80;;;;;;4979309;28;20054;-70
2023/08/21 00:59:36;;;;;;;4.78;1.20;;;18.10;66.80;;;;;;4983256;28;20058;-70
2023/08/21 01:02:04;;;;;;;3.80;1.17;;;18.10;67.00;;;;;;4984270;28;20051;-70
2023/08/21 01:04:31;;;;;;;3.00;1.20;;;18.00;67.10;;;;;;4983691;28;20051;-70
2023/08/21 01:06:59;;;;;;;4.50;0.93;;;18.00;67.20;;;;;;4984839;28;20054;-70
2023/08/21 01:09:32;;;;;;;3.80;1.15;;;18.00;67.20;;;;;;4963875;28;20054;-70
2023/08/21 01:12:07;;;;;;;4.05;1.20;;;18.00;67.30;;;;;;4984284;28;20051;-70
2023/08/21 01:15:02;;;;;;;3.13;1.08;;;18.00;67.30;;;;;;4981817;28;20078;-70
2023/08/21 01:17:31;;;;;;;2.83;0.90;;;17.90;67.30;;;;;;5032377;23;20073;-70
2023/08/21 01:19:59;;;;;;;4.20;1.02;;;17.80;67.60;;;;;;4981350;28;20054;-70
2023/08/21 01:22:27;;;;;;;3.95;0.95;;;17.80;67.80;;;;;;4980809;28;20059;-70
2023/08/21 01:24:56;;;;;;;3.83;0.60;;;17.80;67.90;;;;;;4983401;28;20051;-70
2023/08/21 01:27:24;;;;;;;2.38;0.80;;;17.80;67.90;;;;;;4978660;28;20165;-70
2023/08/21 01:29:51;;;;;;;3.43;0.90;;;17.70;67.90;;;;;;4978135;28;20126;-70
2023/08/21 01:32:26;;;;;;;6.22;1.25;;;17.70;67.90;;;;;;4982119;28;20557;-70
2023/08/21 01:34:56;;;;;;;4.32;1.00;;;17.70;68.00;;;;;;4968448;28;20050;-70
2023/08/21 01:37:25;;;;;;;4.78;1.13;;;17.60;68.20;;;;;;4981787;28;20137;-70
2023/08/21 01:39:52;;;;;;;4.63;1.38;;;17.50;68.40;;;;;;4983096;28;20096;-71
2023/08/21 01:42:21;;;;;;;4.50;1.10;;;17.50;68.50;;;;;;4983931;28;20050;-70
2023/08/21 01:44:48;;;;;;;4.10;0.90;;;17.50;68.50;;;;;;4982028;28;20072;-70
2023/08/21 01:47:15;;;;;;;3.83;1.10;;;17.50;68.40;;;;;;4982405;28;20051;-70
2023/08/21 01:49:42;;;;;;;4.20;1.02;;;17.50;68.30;;;;;;4965622;28;20697;-70
2023/08/21 01:52:11;;;;;;;4.43;1.13;;;17.50;68.20;;;;;;4982035;28;20051;-70
2023/08/21 01:54:39;;;;;;;4.00;0.90;;;17.40;68.40;;;;;;4984812;28;20074;-70
2023/08/21 01:57:06;;;;;;;4.40;1.25;;;17.40;68.40;;;;;;4979204;28;20055;-70
2023/08/21 01:59:34;;;;;;;5.35;1.10;;;17.40;68.50;;;;;;4985227;28;20055;-70
2023/08/21 02:02:01;;;;;;;3.42;0.90;;;17.30;68.50;;;;;;4989654;28;20075;-70
2023/08/21 02:04:28;;;;;;;4.25;1.00;;;17.30;68.50;;;;;;4991394;28;20723;-70
2023/08/21 02:06:55;;;;;;;4.47;0.93;;;17.20;68.50;;;;;;4990695;28;20047;-70
2023/08/21 02:09:24;;;;;;;4.30;0.80;;;17.20;68.50;;;;;;4972963;28;20053;-70
2023/08/21 02:11:51;;;;;;;3.13;0.82;;;17.20;68.60;;;;;;4989640;28;20059;-70
2023/08/21 02:14:18;;;;;;;2.20;0.65;;;17.20;68.50;;;;;;4990898;28;20050;-70
2023/08/21 02:16:46;;;;;;;2.72;0.80;;;17.20;68.70;;;;;;4973693;28;20271;-70
2023/08/21 02:19:14;;;;;;;2.50;0.80;;;17.20;68.80;;;;;;4987706;28;20746;-69
2023/08/21 02:21:42;;;;;;;3.15;0.80;;;17.20;68.70;;;;;;4987623;28;20054;-70
2023/08/21 02:24:10;;;;;;;3.47;0.90;;;17.20;68.80;;;;;;4970877;28;20043;-70
2023/08/21 02:26:39;;;;;;;3.20;0.90;;;17.10;68.90;;;;;;4972186;28;20907;-70
2023/08/21 02:29:06;;;;;;;3.13;1.00;;;17.10;68.90;;;;;;4989733;28;20572;-70
2023/08/21 02:31:33;;;;;;;2.50;0.80;;;17.10;68.90;;;;;;4971154;28;20106;-70
2023/08/21 02:34:03;;;;;;;2.20;0.60;;;17.00;68.70;;;;;;4989585;28;20050;-70
2023/08/21 02:36:30;;;;;;;3.15;0.63;;;17.00;68.60;;;;;;4990980;28;20054;-70
2023/08/21 02:39:03;;;;;;;2.38;0.38;;;17.00;68.80;;;;;;4989043;28;20042;-70
2023/08/21 02:41:30;;;;;;;1.92;0.40;;;17.00;69.00;;;;;;4990238;28;20051;-70
2023/08/21 02:43:59;;;;;;;2.30;0.30;;;17.00;69.10;;;;;;4987566;28;20058;-71
2023/08/21 02:46:26;;;;;;;1.70;0.30;;;16.90;69.10;;;;;;4990263;28;20622;-70
2023/08/21 02:48:53;;;;;;;1.33;0.30;;;16.90;69.00;;;;;;4987600;28;20657;-70
2023/08/21 02:51:21;;;;;;;26.48;2.55;;;16.80;68.90;;;;;;4973427;28;20051;-70
2023/08/21 02:53:48;;;;;;;8.18;0.70;;;16.70;69.00;;;;;;4971824;28;20177;-70
2023/08/21 02:56:15;;;;;;;2.23;0.50;;;16.60;69.20;;;;;;4990247;28;20141;-70
2023/08/21 02:58:46;;;;;;;2.38;0.30;;;16.60;69.20;;;;;;4973639;28;20047;-70
2023/08/21 03:01:13;;;;;;;1.88;0.40;;;16.50;69.30;;;;;;4983408;28;20069;-70
2023/08/21 03:03:41;;;;;;;2.40;0.32;;;16.50;69.60;;;;;;4991118;28;20050;-70
2023/08/21 03:06:09;;;;;;;1.85;0.38;;;16.40;69.80;;;;;;4975060;28;20058;-70
2023/08/21 03:08:40;;;;;;;2.27;0.33;;;16.40;69.70;;;;;;4985328;28;20137;-70
2023/08/21 03:11:07;;;;;;;2.00;0.40;;;16.40;69.90;;;;;;4971674;28;20525;-70
2023/08/21 03:13:34;;;;;;;2.10;0.50;;;16.40;70.00;;;;;;4984938;28;20130;-70
2023/08/21 03:16:02;;;;;;;1.65;0.40;;;16.40;70.10;;;;;;4986111;28;20055;-70
2023/08/21 03:18:32;;;;;;;2.17;0.50;;;16.40;70.00;;;;;;4982499;28;20137;-70
2023/08/21 03:21:00;;;;;;;2.00;0.30;;;16.30;70.20;;;;;;4986875;28;20050;-70
2023/08/21 03:23:28;;;;;;;2.20;0.60;;;16.20;70.10;;;;;;4967818;28;20164;-70
2023/08/21 03:25:56;;;;;;;3.15;0.50;;;16.20;70.10;;;;;;4984996;28;20061;-70
2023/08/21 03:28:26;;;;;;;2.42;0.60;;;16.20;70.20;;;;;;4987234;28;20952;-70
2023/08/21 03:30:54;;;;;;;2.65;0.70;;;16.10;70.30;;;;;;4969361;28;20058;-69
2023/08/21 03:33:22;;;;;;;4.00;0.80;;;16.20;70.40;;;;;;4980298;28;20054;-70
2023/08/21 03:35:54;;;;;;;3.08;0.60;;;16.20;70.50;;;;;;4969644;28;20055;-70
2023/08/21 03:38:23;;;;;;;3.55;0.75;;;16.20;70.50;;;;;;4971028;28;20054;-70
2023/08/21 03:40:51;;;;;;;3.47;0.60;;;16.20;70.50;;;;;;4968588;28;20612;-70
2023/08/21 03:43:20;;;;;;;3.78;0.80;;;16.10;70.40;;;;;;4986930;28;20671;-70
2023/08/21 03:45:48;;;;;;;3.90;1.10;;;16.10;70.40;;;;;;4967134;28;20046;-70
2023/08/21 03:48:15;;;;;;;3.10;0.98;;;16.20;70.40;;;;;;4985512;28;20051;-70
2023/08/21 03:50:44;;;;;;;3.72;0.82;;;16.10;70.40;;;;;;4981984;28;20050;-70
2023/08/21 03:53:12;;;;;;;4.03;0.60;;;16.10;70.50;;;;;;4970421;28;20047;-70
2023/08/21 03:55:39;;;;;;;3.55;0.60;;;16.10;70.30;;;;;;4982611;28;20465;-70
2023/08/21 03:58:09;;;;;;;3.90;0.70;;;16.10;70.40;;;;;;5001849;28;20062;-70
2023/08/21 04:00:39;;;;;;;5.45;0.60;;;16.10;70.50;;;;;;4986497;28;20057;-70
2023/08/21 04:03:08;;;;;;;3.17;0.68;;;16.10;70.40;;;;;;4967751;28;20047;-70
2023/08/21 04:05:36;;;;;;;2.00;0.50;;;16.10;70.30;;;;;;4986900;28;20050;-70
2023/08/21 04:08:03;;;;;;;3.22;0.60;;;16.10;70.20;;;;;;4969514;28;20054;-70
2023/08/21 04:10:30;;;;;;;3.57;0.67;;;16.00;70.30;;;;;;4970543;28;20070;-70
2023/08/21 04:13:00;;;;;;;2.55;0.65;;;16.00;70.30;;;;;;4986224;28;20113;-70
2023/08/21 04:15:28;;;;;;;2.45;0.80;;;16.00;70.30;;;;;;4985258;28;20525;-70
2023/08/21 04:17:56;;;;;;;3.28;0.90;;;16.00;70.40;;;;;;4983082;28;20043;-70
2023/08/21 04:20:24;;;;;;;2.92;0.70;;;16.00;70.50;;;;;;4985982;28;20149;-70
2023/08/21 04:22:51;;;;;;;2.53;0.60;;;15.90;70.60;;;;;;4968704;28;20074;-70
2023/08/21 04:25:20;;;;;;;2.25;0.60;;;15.90;70.70;;;;;;4969702;28;20275;-70
2023/08/21 04:27:47;;;;;;;2.33;0.50;;;15.90;70.80;;;;;;4965719;28;20067;-70
2023/08/21 04:30:15;;;;;;;2.58;0.50;;;15.80;70.90;;;;;;4981204;28;20161;-70
2023/08/21 04:32:42;;;;;;;2.67;0.60;;;15.80;70.80;;;;;;4985266;28;20123;-70
2023/08/21 04:35:11;;;;;;;2.20;0.63;;;15.80;71.00;;;;;;4969377;28;20100;-70
2023/08/21 04:40:36;;;;;;;3.35;0.80;;;15.80;71.20;;;;;;4963701;28;20472;-70
2023/08/21 04:43:04;;;;;;;4.10;0.80;;;15.80;71.20;;;;;;4984598;28;20066;-70
2023/08/21 04:45:32;;;;;;;4.00;0.88;;;15.80;71.40;;;;;;4999547;28;20054;-70
2023/08/21 04:47:59;;;;;;;2.97;0.60;;;15.80;71.40;;;;;;4966418;28;20051;-70
2023/08/21 04:50:28;;;;;;;4.35;1.20;;;15.70;71.30;;;;;;4983067;28;20047;-70
2023/08/21 04:52:55;;;;;;;6.68;1.50;;;15.70;71.50;;;;;;4985951;28;20085;-70
2023/08/21 04:55:22;;;;;;;3.72;1.20;;;15.60;71.50;;;;;;4970951;28;20051;-70
2023/08/21 04:57:49;;;;;;;5.13;0.93;;;15.60;71.50;;;;;;4967626;28;20058;-70
2023/08/21 05:00:17;;;;;;;4.07;1.07;;;15.60;71.40;;;;;;4964754;28;20085;-70
2023/08/21 05:02:45;;;;;;;3.90;1.20;;;15.60;71.50;;;;;;4984928;28;20117;-70
2023/08/21 05:05:13;;;;;;;4.00;1.40;;;15.50;71.70;;;;;;4982177;28;20078;-70
2023/08/21 05:07:41;;;;;;;3.83;1.55;;;15.50;71.80;;;;;;4981504;28;20062;-70
2023/08/21 05:10:09;;;;;;;3.65;1.30;;;15.50;71.90;;;;;;4965087;28;20877;-70
2023/08/21 05:12:39;;;;;;;3.63;1.13;;;15.50;72.00;;;;;;4967379;28;21132;-70
2023/08/21 05:15:07;;;;;;;5.00;1.30;;;15.50;72.00;;;;;;4966552;28;20054;-70
2023/08/21 05:17:34;;;;;;;3.90;1.45;;;15.50;72.10;;;;;;4967788;28;20520;-70
2023/08/21 05:20:03;;;;;;;3.85;1.50;;;15.50;72.20;;;;;;4984455;28;20054;-70
2023/08/21 05:22:31;;;;;;;3.75;1.98;;;15.50;72.30;;;;;;4968088;28;20063;-69
2023/08/21 05:25:00;;;;;;;3.83;1.67;;;15.50;72.40;;;;;;4979581;28;20482;-70
2023/08/21 05:27:27;;;;;;;4.05;1.40;;;15.40;72.60;;;;;;4985789;28;20054;-70
2023/08/21 05:29:54;;;;;;;5.68;1.40;;;15.40;72.70;;;;;;4985603;28;20058;-70
2023/08/21 05:32:21;;;;;;;5.32;1.80;;;15.40;72.70;;;;;;4983062;28;20055;-70
2023/08/21 05:34:49;;;;;;;4.25;1.73;;;15.40;72.90;;;;;;4951810;28;20470;-70
2023/08/21 05:37:18;;;;;;;4.80;1.90;;;15.40;73.10;;;;;;4970184;28;20501;-70
2023/08/21 05:39:45;;;;;;;10.68;2.20;;;15.40;73.20;;;;;;4987816;28;20051;-70
2023/08/21 05:42:14;;;;;;;9.48;2.40;;;15.40;73.50;;;;;;4987144;28;20653;-69
2023/08/21 05:44:44;;;;;;;7.35;2.40;;;15.40;73.60;;;;;;4987416;28;20054;-70
2023/08/21 05:47:13;;;;;;;7.38;2.40;;;15.40;73.40;;;;;;4970138;28;20141;-70
2023/08/21 05:49:40;;;;;;;5.00;2.00;;;15.40;73.50;;;;;;4952344;28;20134;-70
2023/08/21 05:52:07;;;;;;;4.70;1.73;;;15.50;73.50;;;;;;4952421;28;20047;-70
2023/08/21 05:54:34;;;;;;;4.30;1.80;;;15.50;73.90;;;;;;4971593;28;20126;-70
2023/08/21 05:57:01;;;;;;;4.25;1.70;;;15.50;74.00;;;;;;4988043;28;20520;-70
2023/08/21 05:59:32;;;;;;;4.10;1.95;;;15.50;74.00;;;;;;4988190;28;21159;-70
2023/08/21 06:02:02;;;;;;;5.03;1.87;;;15.50;74.20;;;;;;4985499;28;20051;-71
2023/08/21 06:04:29;;;;;;;4.88;1.70;;;15.50;74.30;;;;;;4957492;28;20062;-70
2023/08/21 06:07:03;;;;;;;5.20;1.85;;;15.50;74.30;;;;;;4991705;28;20130;-70
2023/08/21 06:09:31;;;;;;;4.63;2.05;;;15.50;74.60;;;;;;4967210;28;20051;-70
2023/08/21 06:11:58;;;;;;;6.95;2.10;;;15.60;75.40;;;;;;4964028;28;20244;-70
2023/08/21 06:14:28;;;;;;;4.03;1.70;;;15.60;75.70;;;;;;4965460;28;20105;-70
2023/08/21 06:17:05;;;;;;;6.30;2.10;;;15.60;75.30;;;;;;4962963;28;20840;-70
2023/08/21 06:19:32;;;;;;;5.82;1.83;;;15.60;75.20;;;;;;4965606;28;20043;-70
2023/08/21 06:21:59;;;;;;;4.82;1.83;;;15.60;75.10;;;;;;4960843;28;20066;-70
2023/08/21 06:24:26;;;;;;;4.80;2.10;;;15.60;75.60;;;;;;4963542;28;20067;-70
2023/08/21 06:26:58;;;;;;;4.67;2.10;;;15.60;75.70;;;;;;4980778;28;20046;-71
2023/08/21 06:29:25;;;;;;;4.00;1.35;;;15.70;76.40;;;;;;4977953;28;20553;-69
2023/08/21 06:31:53;;;;;;;6.03;2.10;;;15.80;77.30;;;;;;4980194;28;20043;-68
2023/08/21 06:34:23;;;;;;;6.75;2.00;;;15.80;77.90;;;;;;4963378;28;20049;-68
2023/08/21 06:36:52;;;;;;;5.35;1.67;;;15.80;78.30;;;;;;4982174;28;20054;-68
2023/08/21 06:39:19;;;;;;;4.67;1.70;;;15.90;78.70;;;;;;4983907;28;20589;-69
2023/08/21 06:41:46;;;;;;;6.53;1.50;;;16.00;78.60;;;;;;4977457;28;20203;-69
2023/08/21 06:44:19;;;;;;;8.77;1.67;;;16.00;79.20;;;;;;4968493;28;20162;-68
2023/08/21 06:46:47;;;;;;;5.97;1.52;;;16.00;79.50;;;;;;4968841;28;20054;-68
2023/08/21 06:49:14;;;;;;;4.55;1.60;;;16.10;79.80;;;;;;4974209;28;20043;-69
2023/08/21 06:51:44;;;;;;;5.10;1.40;;;16.10;80.10;;;;;;4990014;28;20552;-69
2023/08/21 06:54:12;;;;;;;5.80;1.42;;;16.20;80.60;;;;;;4987892;28;20420;-69
2023/08/21 06:56:39;;;;;;;7.43;1.52;;;16.40;80.70;;;;;;4990076;28;20055;-68
2023/08/21 06:59:06;;;;;;;7.35;2.30;;;16.40;80.80;;;;;;4991328;28;20122;-69
2023/08/21 07:01:33;;;;;;;6.65;2.17;;;16.50;81.10;;;;;;4989127;28;20619;-68
2023/08/21 07:04:00;;;;;;;7.20;1.87;;;16.50;81.20;;;;;;4989217;28;20047;-69
2023/08/21 07:06:29;;;;;;;6.35;1.90;;;16.60;81.80;;;;;;4988874;28;20062;-69
2023/08/21 07:09:23;;;;;;;8.63;1.90;;;16.80;82.00;;;;;;4988642;28;20540;-69
2023/08/21 07:11:51;;;;;;;6.32;1.83;;;16.90;82.10;;;;;;4986917;28;20054;-69
2023/08/21 07:14:18;;;;;;;5.80;1.30;;;17.00;81.90;;;;;;4988294;28;20051;-69
2023/08/21 07:16:45;;;;;;;4.90;1.53;;;17.00;82.10;;;;;;4986977;28;20584;-69
2023/08/21 07:19:12;;;;;;;5.65;1.55;;;17.20;82.10;;;;;;4984232;28;20134;-68
2023/08/21 07:21:39;;;;;;;5.40;1.42;;;17.20;82.00;;;;;;4970461;28;20055;-69
2023/08/21 07:24:07;;;;;;;6.63;1.50;;;17.30;82.20;;;;;;4985302;28;20065;-68
2023/08/21 07:26:35;;;;;;;5.82;1.50;;;17.40;82.20;;;;;;4985735;28;20059;-69
2023/08/21 07:29:04;;;;;;;4.57;0.90;;;17.50;82.30;;;;;;4985913;28;20047;-69
2023/08/21 07:31:31;;;;;;;6.60;1.60;;;17.50;82.30;;;;;;4987534;28;20137;-69
2023/08/21 07:33:58;;;;;;;6.78;1.60;;;17.60;82.50;;;;;;4985140;28;20059;-69
2023/08/21 07:36:25;;;;;;;5.30;1.25;;;17.70;82.50;;;;;;4987449;28;20051;-69
2023/08/21 07:38:52;;;;;;;6.05;1.55;;;17.80;82.80;;;;;;4989609;28;20047;-69
2023/08/21 07:41:19;;;;;;;5.77;1.50;;;18.00;83.00;;;;;;4983367;28;20118;-69
2023/08/21 07:43:48;;;;;;;5.00;1.60;;;18.10;82.70;;;;;;4971562;28;20039;-69
2023/08/21 07:46:18;;;;;;;5.63;1.23;;;18.20;82.70;;;;;;4987287;28;20055;-69
2023/08/21 07:48:45;;;;;;;7.47;1.20;;;18.30;82.90;;;;;;4971207;28;20051;-69
2023/08/21 07:51:12;;;;;;;6.15;1.38;;;18.40;82.60;;;;;;4988198;28;20050;-69
2023/08/21 07:53:40;;;;;;;6.13;1.30;;;18.40;82.50;;;;;;4987557;28;20055;-69
2023/08/21 07:56:08;;;;;;;5.80;1.42;;;18.50;82.20;;;;;;4984868;28;20051;-69
2023/08/21 07:58:36;;;;;;;6.40;1.20;;;18.60;82.10;;;;;;4963951;28;20054;-69
2023/08/21 08:01:04;;;;;;;5.32;1.33;;;18.70;81.90;;;;;;4969560;28;20233;-70
2023/08/21 08:03:31;;;;;;;6.55;1.42;;;18.70;81.50;;;;;;4988414;28;20473;-69
2023/08/21 08:05:59;;;;;;;5.27;0.97;;;18.80;81.20;;;;;;4989016;28;20687;-69
2023/08/21 08:08:26;;;;;;;4.25;1.00;;;18.90;80.90;;;;;;4990164;28;20050;-69
2023/08/21 08:10:53;;;;;;;5.90;1.20;;;18.90;80.60;;;;;;4988579;28;20055;-69
2023/08/21 08:13:22;;;;;;;4.20;1.23;;;19.00;80.30;;;;;;4989647;28;20133;-69
2023/08/21 08:15:52;;;;;;;5.45;1.20;;;19.10;80.00;;;;;;4987116;28;20529;-69
2023/08/21 08:18:20;;;;;;;6.37;1.27;;;19.10;79.50;;;;;;4986160;28;20043;-69
2023/08/21 08:20:49;;;;;;;3.72;0.93;;;19.20;79.00;;;;;;4991280;28;20060;-69
2023/08/21 08:23:16;;;;;;;3.75;0.98;;;19.30;78.60;;;;;;4986041;28;20051;-69
2023/08/21 08:25:43;;;;;;;4.88;1.00;;;19.30;77.50;;;;;;4986470;28;20054;-69
2023/08/21 08:28:10;;;;;;;4.38;0.90;;;19.40;77.20;;;;;;4986649;28;20138;-69
2023/08/21 08:30:37;;;;;;;5.57;0.93;;;19.50;77.20;;;;;;4988648;28;20602;-69
2023/08/21 08:33:04;;;;;;;4.97;1.25;;;19.50;76.90;;;;;;4988515;28;20133;-69
2023/08/21 08:35:33;;;;;;;5.10;1.70;;;19.50;76.80;;;;;;4988760;28;20146;-69
2023/08/21 08:38:00;;;;;;;4.03;1.27;;;19.70;76.60;;;;;;4987954;28;20094;-69
2023/08/21 08:40:27;;;;;;;4.07;1.15;;;19.70;76.30;;;;;;4985556;28;20543;-69
2023/08/21 08:42:54;;;;;;;4.83;1.70;;;19.70;75.90;;;;;;4985688;28;20145;-69
2023/08/21 08:45:31;;;;;;;4.93;1.58;;;19.80;75.70;;;;;;4988251;28;20106;-69
2023/08/21 08:48:01;;;;;;;5.68;1.33;;;19.90;75.00;;;;;;4988182;28;20047;-69
2023/08/21 08:50:32;;;;;;;4.97;1.70;;;20.00;74.70;;;;;;4988106;28;20050;-69
2023/08/21 08:53:01;;;;;;;4.82;1.27;;;20.00;74.50;;;;;;4988313;28;20084;-69
2023/08/21 08:55:28;;;;;;;6.30;1.50;;;20.00;74.40;;;;;;4997301;28;20387;-69
2023/08/21 08:57:55;;;;;;;5.25;1.20;;;20.10;74.20;;;;;;4979349;28;20050;-69
2023/08/21 09:00:22;;;;;;;4.75;1.40;;;20.20;73.90;;;;;;4988668;28;20065;-69
2023/08/21 09:02:50;;;;;;;3.20;1.27;;;20.30;73.10;;;;;;4983554;28;20568;-69
2023/08/21 09:05:17;;;;;;;3.65;1.00;;;20.30;73.00;;;;;;4982745;28;20055;-69
2023/08/21 09:07:44;;;;;;;4.70;1.10;;;20.40;72.00;;;;;;4986256;28;20217;-69
2023/08/21 09:10:16;;;;;;;6.63;1.10;;;20.50;71.00;;;;;;4969348;28;20046;-70
2023/08/21 09:12:46;;;;;;;5.35;1.60;;;20.50;71.10;;;;;;4984915;28;20482;-69
2023/08/21 09:15:13;;;;;;;4.68;1.45;;;20.60;71.20;;;;;;4987354;28;20097;-69
2023/08/21 09:17:40;;;;;;;8.85;2.20;;;20.60;71.40;;;;;;4987716;28;20130;-69
2023/08/21 09:20:10;;;;;;;6.73;1.90;;;20.70;71.40;;;;;;4986245;28;20185;-69
2023/08/21 09:22:37;;;;;;;10.63;2.60;;;20.80;71.30;;;;;;4982305;28;20061;-70
2023/08/21 09:25:07;;;;;;;7.05;2.08;;;20.90;71.10;;;;;;4966137;28;20074;-69
2023/08/21 09:27:35;;;;;;;6.05;1.30;;;20.90;71.00;;;;;;4986750;28;20051;-69
2023/08/21 09:30:05;;;;;;;5.03;1.42;;;21.00;70.70;;;;;;4987401;28;20059;-69
2023/08/21 09:32:32;;;;;;;3.90;1.10;;;21.10;70.50;;;;;;4971950;28;20157;-70
2023/08/21 09:34:59;;;;;;;3.80;1.05;;;21.10;69.60;;;;;;4987482;28;20568;-70
2023/08/21 09:37:30;;;;;;;5.22;1.00;;;21.10;69.20;;;;;;4987522;28;20047;-70
2023/08/21 09:40:03;;;;;;;4.97;1.23;;;21.20;68.00;;;;;;4987768;28;20055;-69
2023/08/21 09:42:30;;;;;;;5.97;1.40;;;21.30;67.50;;;;;;4983776;28;20054;-69
2023/08/21 09:44:59;;;;;;;5.00;1.10;;;21.40;67.30;;;;;;4986606;28;20130;-69
2023/08/21 09:47:27;;;;;;;4.78;0.90;;;21.40;67.30;;;;;;4988519;28;20838;-70
2023/08/21 09:49:55;;;;;;;3.70;1.00;;;21.50;67.50;;;;;;4986697;28;20058;-69
2023/08/21 09:52:22;;;;;;;5.40;1.10;;;21.50;66.70;;;;;;4986090;28;20057;-69
2023/08/21 09:54:54;;;;;;;4.75;1.20;;;21.50;66.50;;;;;;4984646;28;20433;-69
2023/08/21 09:57:23;;;;;;;5.73;1.03;;;21.60;65.40;;;;;;4985786;28;20405;-69
2023/08/21 09:59:53;;;;;;;4.10;1.00;;;21.70;64.30;;;;;;4985655;28;20137;-70
2023/08/21 10:02:24;;;;;;;5.47;1.05;;;21.70;64.20;;;;;;4981122;28;20054;-69
2023/08/21 10:04:52;;;;;;;4.07;1.20;;;21.80;63.80;;;;;;4970499;28;20047;-69
2023/08/21 10:07:26;;;;;;;3.97;1.08;;;21.90;63.90;;;;;;4985303;28;20051;-69
2023/08/21 10:09:54;;;;;;;4.70;1.20;;;21.90;64.60;;;;;;4984277;28;20922;-69
2023/08/21 10:12:24;;;;;;;6.13;1.13;;;22.00;64.70;;;;;;4987822;28;20138;-68
2023/08/21 10:14:51;;;;;;;5.00;1.45;;;22.00;63.50;;;;;;4985613;28;20130;-69
2023/08/21 10:17:18;;;;;;;4.60;1.10;;;22.10;63.10;;;;;;4986799;28;20086;-69
2023/08/21 10:19:53;;;;;;;3.65;1.10;;;22.10;63.20;;;;;;4988043;28;20170;-69
2023/08/21 10:22:45;;;;;;;5.80;1.20;;;22.10;62.90;;;;;;4985171;28;20529;-69
2023/08/21 10:25:22;;;;;;;4.90;1.40;;;22.20;63.00;;;;;;4990128;28;20086;-69
2023/08/21 10:27:51;;;;;;;5.18;1.10;;;22.30;62.50;;;;;;4984201;28;20043;-71
2023/08/21 10:30:22;;;;;;;5.88;1.10;;;22.30;62.00;;;;;;4986522;28;20166;-69
2023/08/21 10:32:50;;;;;;;5.85;1.20;;;22.40;61.20;;;;;;4989821;28;20069;-69
2023/08/21 10:35:22;;;;;;;3.40;1.30;;;22.40;60.40;;;;;;4989858;28;20063;-69
2023/08/21 10:38:11;;;;;;;4.43;1.10;;;22.50;60.50;;;;;;4989193;28;20849;-69
2023/08/21 10:40:39;;;;;;;4.00;1.00;;;22.50;60.80;;;;;;4989096;28;20145;-69
2023/08/21 10:43:38;;;;;;;4.55;1.10;;;22.50;61.00;;;;;;4987559;28;20466;-69
2023/08/21 10:46:05;;;;;;;5.32;1.20;;;22.60;61.50;;;;;;4986458;28;20138;-69
2023/08/21 10:48:32;;;;;;;4.30;1.20;;;22.60;61.00;;;;;;4989107;28;20424;-69
2023/08/21 10:51:03;;;;;;;5.50;1.23;;;22.70;61.20;;;;;;4988768;28;20612;-69
2023/08/21 10:53:31;;;;;;;4.72;1.15;;;22.80;60.90;;;;;;4989304;28;20122;-69
2023/08/21 10:56:01;;;;;;;3.22;1.20;;;22.80;60.60;;;;;;4989442;28;20106;-69
2023/08/21 10:58:34;;;;;;;4.70;1.40;;;22.90;60.50;;;;;;4988926;28;21077;-69
2023/08/21 11:01:02;;;;;;;4.93;1.13;;;22.90;60.30;;;;;;4986182;28;20057;-70
2023/08/21 11:03:30;;;;;;;5.43;1.30;;;23.00;60.00;;;;;;4972245;28;20055;-69
2023/08/21 11:06:07;;;;;;;4.53;1.05;;;23.00;60.40;;;;;;4984415;28;20058;-69
2023/08/21 11:08:34;;;;;;;4.95;1.40;;;23.10;60.40;;;;;;4987715;28;20062;-69
2023/08/21 11:11:04;;;;;;;4.57;1.15;;;23.10;59.70;;;;;;4973148;28;20093;-69
2023/08/21 11:13:31;;;;;;;5.77;1.37;;;23.20;60.00;;;;;;4987942;28;20161;-69
2023/08/21 11:16:00;;;;;;;4.38;1.20;;;23.30;60.30;;;;;;4972013;28;20066;-69
2023/08/21 11:18:35;;;;;;;5.45;1.33;;;23.30;60.10;;;;;;4980748;28;20078;-69
2023/08/21 11:21:09;;;;;;;5.35;1.50;;;23.40;59.70;;;;;;4987714;28;20086;-69
2023/08/21 11:23:37;;;;;;;6.05;1.75;;;23.50;59.80;;;;;;4986368;28;20051;-69
2023/08/21 11:26:05;;;;;;;4.13;1.17;;;23.60;59.90;;;;;;4984854;28;20069;-69
2023/08/21 11:28:32;;;;;;;4.80;1.52;;;23.60;59.80;;;;;;4987775;28;20146;-69
2023/08/21 11:31:00;;;;;;;6.03;1.50;;;23.60;60.00;;;;;;4986657;28;20062;-69
2023/08/21 11:33:28;;;;;;;4.28;1.30;;;23.60;59.70;;;;;;4985955;28;20050;-69
2023/08/21 11:35:57;;;;;;;3.38;1.10;;;23.70;58.90;;;;;;4968327;28;20053;-69
2023/08/21 11:38:27;;;;;;;4.20;1.27;;;23.80;57.60;;;;;;4986791;28;20043;-69
2023/08/21 11:40:58;;;;;;;6.03;1.45;;;23.80;58.20;;;;;;4985799;28;20178;-69
2023/08/21 11:43:35;;;;;;;4.07;1.20;;;23.80;58.70;;;;;;4985086;28;20137;-69
2023/08/21 11:46:03;;;;;;;6.35;1.88;;;23.90;57.90;;;;;;4986389;28;20095;-69
2023/08/21 11:48:31;;;;;;;5.30;1.30;;;24.00;57.40;;;;;;4989380;28;20054;-69
2023/08/21 11:50:58;;;;;;;3.83;1.30;;;24.00;57.40;;;;;;4988590;28;20057;-69
2023/08/21 11:53:35;;;;;;;4.97;1.23;;;24.00;57.50;;;;;;4984572;28;20051;-69
2023/08/21 11:56:03;;;;;;;4.57;1.40;;;24.00;57.70;;;;;;5001674;28;20055;-71
2023/08/21 11:58:30;;;;;;;3.50;1.30;;;24.00;57.40;;;;;;4987504;28;20118;-71
2023/08/21 12:01:04;;;;;;;4.10;1.30;;;24.00;58.10;;;;;;4987353;28;20047;-71
2023/08/21 12:03:36;;;;;;;6.93;1.43;;;24.00;57.90;;;;;;4987785;28;20428;-71
2023/08/21 12:06:06;;;;;;;4.03;1.40;;;24.00;57.50;;;;;;4982829;28;20048;-71
2023/08/21 12:08:34;;;;;;;3.88;1.30;;;24.00;57.40;;;;;;4988319;28;20157;-71
2023/08/21 12:11:02;;;;;;;4.38;1.15;;;24.10;56.90;;;;;;4985066;28;20527;-71
2023/08/21 12:13:54;;;;;;;4.38;1.00;;;24.10;56.30;;;;;;4988135;28;20047;-71
2023/08/21 12:16:21;;;;;;;7.00;1.20;;;24.20;56.00;;;;;;4984293;28;20057;-71
2023/08/21 12:18:48;;;;;;;3.85;1.10;;;24.20;56.10;;;;;;4986906;28;20086;-71
2023/08/21 12:21:15;;;;;;;5.95;1.30;;;24.20;56.10;;;;;;4986160;28;20146;-71
2023/08/21 12:23:43;;;;;;;5.03;1.10;;;24.20;56.20;;;;;;4988082;28;20078;-71
2023/08/21 12:26:10;;;;;;;5.65;1.40;;;24.20;55.40;;;;;;4980805;28;20241;-70
2023/08/21 12:28:38;;;;;;;3.73;1.10;;;24.20;55.90;;;;;;4989063;28;20050;-71
2023/08/21 12:31:05;;;;;;;4.53;1.15;;;24.30;55.70;;;;;;4987177;28;20047;-71
2023/08/21 12:33:31;;;;;;;4.82;0.98;;;24.30;55.50;;;;;;4981840;28;20059;-71
2023/08/21 12:35:58;;;;;;;4.25;1.02;;;24.40;56.20;;;;;;4978751;28;20047;-71
2023/08/21 12:38:28;;;;;;;4.50;1.30;;;24.40;56.70;;;;;;4969563;28;20514;-71
2023/08/21 12:40:57;;;;;;;4.17;0.93;;;24.40;56.40;;;;;;4969776;28;20054;-71
2023/08/21 12:43:25;;;;;;;6.05;1.10;;;24.50;56.50;;;;;;4980087;28;21024;-71
2023/08/21 12:45:52;;;;;;;5.10;1.00;;;24.50;56.90;;;;;;4988265;28;20086;-71
2023/08/21 12:48:20;;;;;;;4.60;1.15;;;24.60;55.40;;;;;;4987978;28;20047;-71
2023/08/21 12:50:47;;;;;;;3.88;1.00;;;24.70;55.30;;;;;;4982494;28;20487;-71
2023/08/21 12:53:14;;;;;;;3.60;0.83;;;24.70;54.70;;;;;;4978581;28;20433;-71
2023/08/21 12:55:42;;;;;;;4.55;1.00;;;24.80;53.60;;;;;;4969415;28;20106;-71